createdAt,value
2022-10-14T00:00:41.188Z,3.00
2022-10-14T00:02:54.715Z,2.92
2022-10-14T00:05:10.121Z,3.04
2022-10-14T00:07:24.789Z,2.89
2022-10-14T00:09:40.040Z,2.94
2022-10-14T00:11:58.278Z,2.95
2022-10-14T00:14:16.556Z,3.04
2022-10-14T00:16:31.143Z,3.02
2022-10-14T00:18:48.191Z,2.83
2022-10-14T00:21:03.490Z,2.86
2022-10-14T00:23:16.976Z,2.76
2022-10-14T00:25:32.011Z,2.71
2022-10-14T00:27:45.462Z,2.42
2022-10-14T00:30:02.883Z,2.68
2022-10-14T00:32:17.629Z,2.63
2022-10-14T00:34:44.056Z,2.64
2022-10-14T00:36:57.150Z,2.27
2022-10-14T00:39:11.956Z,2.49
2022-10-14T00:41:34.265Z,2.59
2022-10-14T00:44:02.815Z,2.46
2022-10-14T00:46:15.021Z,2.50
2022-10-14T00:48:29.890Z,2.38
2022-10-14T00:50:35.614Z,2.54
2022-10-14T00:52:41.095Z,2.52
2022-10-14T00:54:49.297Z,2.52
2022-10-14T00:56:52.558Z,2.42
2022-10-14T00:59:07.058Z,2.48
2022-10-14T01:01:20.298Z,2.54
2022-10-14T01:03:33.496Z,2.60
2022-10-14T01:05:56.027Z,2.63
2022-10-14T01:08:20.393Z,2.35
2022-10-14T01:10:40.299Z,2.68
2022-10-14T01:13:06.543Z,2.68
2022-10-14T01:15:40.946Z,2.74
2022-10-14T01:18:10.237Z,2.77
2022-10-14T01:20:30.645Z,2.77
2022-10-14T01:22:54.634Z,2.68
2022-10-14T01:25:32.265Z,2.75
2022-10-14T01:28:16.673Z,2.81
2022-10-14T01:30:58.293Z,2.78
2022-10-14T01:33:16.544Z,2.75
2022-10-14T01:35:37.907Z,2.77
2022-10-14T01:37:58.401Z,2.95
2022-10-14T01:40:17.512Z,2.88
2022-10-14T01:42:35.447Z,2.75
2022-10-14T01:44:56.819Z,2.72
2022-10-14T01:47:15.373Z,2.64
2022-10-14T01:49:40.342Z,2.56
2022-10-14T01:52:04.489Z,2.46
2022-10-14T01:54:27.995Z,2.31
2022-10-14T01:56:45.444Z,2.13
2022-10-14T01:58:50.327Z,2.08
2022-10-14T02:00:52.404Z,1.99
2022-10-14T02:02:54.709Z,1.92
2022-10-14T02:04:56.832Z,1.83
2022-10-14T02:07:16.703Z,1.75
2022-10-14T02:10:01.360Z,1.67
2022-10-14T02:12:21.497Z,1.55
2022-10-14T02:14:38.596Z,1.51
2022-10-14T02:17:21.577Z,1.39
2022-10-14T02:19:44.781Z,1.30
2022-10-14T02:22:10.946Z,1.20
2022-10-14T02:24:29.735Z,1.11
2022-10-14T02:26:44.496Z,0.94
2022-10-14T02:29:12.506Z,0.91
2022-10-14T02:31:29.213Z,0.75
2022-10-14T02:33:48.709Z,0.71
2022-10-14T02:35:52.187Z,0.56
2022-10-14T02:37:56.446Z,0.23
2022-10-14T02:40:05.230Z,0.44
2022-10-14T02:42:07.867Z,0.28
2022-10-14T02:44:21.702Z,0.24
2022-10-14T02:46:39.221Z,0.16
2022-10-14T02:48:55.144Z,0.12
2022-10-14T02:50:57.242Z,0.07
2022-10-14T02:52:59.528Z,-0.07
2022-10-14T02:55:01.855Z,-0.14
2022-10-14T02:57:05.667Z,-0.19
2022-10-14T02:59:18.672Z,-0.29
2022-10-14T03:01:45.883Z,-0.33
2022-10-14T03:04:00.488Z,-0.38
2022-10-14T03:06:14.733Z,-0.43
2022-10-14T03:08:28.923Z,-0.60
2022-10-14T03:10:48.232Z,-0.64
2022-10-14T03:13:02.331Z,-0.68
2022-10-14T03:15:21.098Z,-0.73
2022-10-14T03:17:33.875Z,-0.83
2022-10-14T03:19:51.220Z,-0.84
2022-10-14T03:22:05.284Z,-0.88
2022-10-14T03:24:19.639Z,-1.01
2022-10-14T03:26:38.607Z,-1.30
2022-10-14T03:28:52.795Z,-1.06
2022-10-14T03:31:10.266Z,-1.12
2022-10-14T03:33:43.619Z,-1.16
2022-10-14T03:35:59.648Z,-1.19
2022-10-14T03:38:26.398Z,-1.24
2022-10-14T03:40:40.549Z,-1.23
2022-10-14T03:43:00.976Z,-1.28
2022-10-14T03:45:21.819Z,-1.25
2022-10-14T03:47:35.982Z,-1.38
2022-10-14T03:49:48.778Z,-1.31
2022-10-14T03:52:09.281Z,-1.29
2022-10-14T03:54:23.534Z,-1.30
2022-10-14T03:56:37.623Z,-1.28
2022-10-14T03:58:40.138Z,-1.25
2022-10-14T04:00:47.279Z,-1.29
2022-10-14T04:03:05.569Z,-1.30
2022-10-14T04:05:14.773Z,-1.26
2022-10-14T04:07:30.260Z,-1.21
2022-10-14T04:09:44.418Z,-1.26
2022-10-14T04:11:59.068Z,-1.27
2022-10-14T04:14:24.506Z,-1.24
2022-10-14T04:16:27.282Z,-1.19
2022-10-14T04:18:37.158Z,-1.22
2022-10-14T04:20:40.377Z,-1.13
2022-10-14T04:22:59.332Z,-1.09
2022-10-14T04:25:13.487Z,-1.04
2022-10-14T04:27:27.781Z,-1.09
2022-10-14T04:29:48.275Z,-1.05
2022-10-14T04:32:13.113Z,-0.85
2022-10-14T04:34:26.379Z,-0.64
2022-10-14T04:36:40.742Z,-0.29
2022-10-14T04:39:07.532Z,0.63
2022-10-14T04:41:23.315Z,2.12
2022-10-14T04:43:36.105Z,4.97
2022-10-14T04:46:04.605Z,8.30
2022-10-14T04:48:20.333Z,11.05
2022-10-14T04:50:34.439Z,13.56
2022-10-14T04:53:10.575Z,15.75
2022-10-14T04:55:33.903Z,17.71
2022-10-14T04:57:47.428Z,19.40
2022-10-14T05:00:02.145Z,20.41
2022-10-14T05:02:51.160Z,21.63
2022-10-14T05:05:06.981Z,22.83
2022-10-14T05:07:24.292Z,23.80
2022-10-14T05:09:48.286Z,24.21
2022-10-14T05:12:12.032Z,24.97
2022-10-14T05:14:22.751Z,25.35
2022-10-14T05:16:35.077Z,25.12
2022-10-14T05:18:37.726Z,25.20
2022-10-14T05:20:44.752Z,24.78
2022-10-14T05:22:47.668Z,24.69
2022-10-14T05:24:50.299Z,24.64
2022-10-14T05:26:53.272Z,24.83
2022-10-14T05:28:55.621Z,24.95
2022-10-14T05:30:58.679Z,25.02
2022-10-14T05:33:01.001Z,25.04
2022-10-14T05:35:03.137Z,24.93
2022-10-14T05:37:22.182Z,25.18
2022-10-14T05:39:37.972Z,25.43
2022-10-14T05:41:52.152Z,25.67
2022-10-14T05:43:59.006Z,25.67
2022-10-14T05:46:01.290Z,25.55
2022-10-14T05:48:06.276Z,25.26
2022-10-14T05:50:08.732Z,24.84
2022-10-14T05:52:22.639Z,24.09
2022-10-14T05:54:36.821Z,22.41
2022-10-14T05:56:52.520Z,20.46
2022-10-14T05:59:18.338Z,18.31
2022-10-14T06:01:34.685Z,16.42
2022-10-14T06:03:50.984Z,14.76
2022-10-14T06:06:08.298Z,13.29
2022-10-14T06:08:22.588Z,12.07
2022-10-14T06:10:36.196Z,10.89
2022-10-14T06:12:50.284Z,10.21
2022-10-14T06:15:04.545Z,9.40
2022-10-14T06:17:20.227Z,8.87
2022-10-14T06:19:34.213Z,8.38
2022-10-14T06:21:36.339Z,7.91
2022-10-14T06:23:38.447Z,7.51
2022-10-14T06:25:40.610Z,7.28
2022-10-14T06:27:42.755Z,6.90
2022-10-14T06:29:56.411Z,6.73
2022-10-14T06:32:10.634Z,6.58
2022-10-14T06:34:24.930Z,6.37
2022-10-14T06:36:39.084Z,6.16
2022-10-14T06:38:53.424Z,5.98
2022-10-14T06:41:07.455Z,5.88
2022-10-14T06:43:22.546Z,5.74
2022-10-14T06:45:35.818Z,5.67
2022-10-14T06:47:50.023Z,5.59
2022-10-14T06:50:07.280Z,5.58
2022-10-14T06:52:20.203Z,5.64
2022-10-14T06:54:38.913Z,5.59
2022-10-14T06:56:54.703Z,5.71
2022-10-14T06:58:58.008Z,5.60
2022-10-14T07:01:07.074Z,5.59
2022-10-14T07:03:09.230Z,5.61
2022-10-14T07:05:11.550Z,5.61
2022-10-14T07:07:25.163Z,5.64
2022-10-14T07:09:39.420Z,5.59
2022-10-14T07:11:52.132Z,5.71
2022-10-14T07:14:06.078Z,5.81
2022-10-14T07:16:20.316Z,6.06
2022-10-14T07:18:34.488Z,6.20
2022-10-14T07:20:47.363Z,6.70
2022-10-14T07:23:01.792Z,7.18
2022-10-14T07:25:14.238Z,7.51
2022-10-14T07:27:28.866Z,7.64
2022-10-14T07:29:43.701Z,7.71
2022-10-14T07:32:22.812Z,7.67
2022-10-14T07:34:37.115Z,7.55
2022-10-14T07:36:39.505Z,7.48
2022-10-14T07:38:46.012Z,7.44
2022-10-14T07:40:57.816Z,7.25
2022-10-14T07:43:01.847Z,7.15
2022-10-14T07:45:17.689Z,7.13
2022-10-14T07:47:33.001Z,7.12
2022-10-14T07:49:47.489Z,7.10
2022-10-14T07:51:49.924Z,7.07
2022-10-14T07:53:53.225Z,7.05
2022-10-14T07:55:58.913Z,7.05
2022-10-14T07:58:01.062Z,6.97
2022-10-14T08:00:15.406Z,7.00
2022-10-14T08:02:29.509Z,7.00
2022-10-14T08:04:43.766Z,7.02
2022-10-14T08:06:58.197Z,6.98
2022-10-14T08:09:12.386Z,6.99
2022-10-14T08:11:28.357Z,7.04
2022-10-14T08:13:45.289Z,7.04
2022-10-14T08:15:59.666Z,7.12
2022-10-14T08:18:13.662Z,7.06
2022-10-14T08:20:27.001Z,7.21
2022-10-14T08:22:43.337Z,7.23
2022-10-14T08:24:57.315Z,7.15
2022-10-14T08:27:10.849Z,7.27
2022-10-14T08:29:13.436Z,7.27
2022-10-14T08:31:16.598Z,7.28
2022-10-14T08:33:18.740Z,7.31
2022-10-14T08:35:21.228Z,7.30
2022-10-14T08:37:34.829Z,7.36
2022-10-14T08:39:48.681Z,7.37
2022-10-14T08:42:19.267Z,7.39
2022-10-14T08:44:34.034Z,7.46
2022-10-14T08:46:36.125Z,7.43
2022-10-14T08:48:39.577Z,7.28
2022-10-14T08:50:49.537Z,7.28
2022-10-14T08:53:10.525Z,7.32
2022-10-14T08:55:36.889Z,7.48
2022-10-14T08:58:20.095Z,7.57
2022-10-14T09:00:38.072Z,7.71
2022-10-14T09:02:52.042Z,7.72
2022-10-14T09:05:04.681Z,7.66
2022-10-14T09:07:20.098Z,7.74
2022-10-14T09:09:46.357Z,7.86
2022-10-14T09:12:06.288Z,8.12
2022-10-14T09:14:24.576Z,8.27
2022-10-14T09:16:40.357Z,8.76
2022-10-14T09:18:59.015Z,9.10
2022-10-14T09:21:40.424Z,9.33
2022-10-14T09:24:10.290Z,9.65
2022-10-14T09:26:24.359Z,9.81
2022-10-14T09:28:41.375Z,9.94
2022-10-14T09:30:55.392Z,10.04
2022-10-14T09:33:20.904Z,10.19
2022-10-14T09:35:42.471Z,9.97
2022-10-14T09:37:55.661Z,9.77
2022-10-14T09:40:12.662Z,9.55
2022-10-14T09:42:40.678Z,9.49
2022-10-14T09:44:42.809Z,9.52
2022-10-14T09:47:08.164Z,9.62
2022-10-14T09:49:19.353Z,9.71
2022-10-14T09:51:23.969Z,9.69
2022-10-14T09:53:56.504Z,9.54
2022-10-14T09:56:10.834Z,9.27
2022-10-14T09:58:32.618Z,9.14
2022-10-14T10:00:47.481Z,8.96
2022-10-14T10:03:01.503Z,8.78
2022-10-14T10:05:29.230Z,8.80
2022-10-14T10:07:41.287Z,8.68
2022-10-14T10:09:59.749Z,8.57
2022-10-14T10:12:31.680Z,8.52
2022-10-14T10:14:59.143Z,8.58
2022-10-14T10:17:19.428Z,8.77
2022-10-14T10:19:44.127Z,8.92
2022-10-14T10:24:37.368Z,8.93
2022-10-14T10:26:51.699Z,8.81
2022-10-14T10:29:06.315Z,8.67
2022-10-14T10:31:32.521Z,8.58
2022-10-14T10:34:13.436Z,8.48
2022-10-14T10:36:33.645Z,8.44
2022-10-14T10:39:13.553Z,8.42
2022-10-14T10:41:32.970Z,8.61
2022-10-14T10:44:01.567Z,8.87
2022-10-14T10:46:17.852Z,9.18
2022-10-14T10:48:45.410Z,9.31
2022-10-14T10:51:26.877Z,9.37
2022-10-14T10:53:43.565Z,9.50
2022-10-14T10:56:08.429Z,9.56
2022-10-14T10:58:49.982Z,9.60
2022-10-14T11:01:08.160Z,9.55
2022-10-14T11:04:27.170Z,9.82
2022-10-14T11:07:28.297Z,9.45
2022-10-14T11:10:13.654Z,9.22
2022-10-14T11:12:59.904Z,8.86
2022-10-14T11:15:48.572Z,8.61
2022-10-14T11:18:20.847Z,8.45
2022-10-14T11:20:41.017Z,8.39
2022-10-14T11:23:24.300Z,8.30
2022-10-14T11:25:36.311Z,8.23
2022-10-14T11:28:13.436Z,8.22
2022-10-14T11:30:19.049Z,8.12
2022-10-14T11:32:45.869Z,8.09
2022-10-14T11:34:48.219Z,8.05
2022-10-14T11:37:09.779Z,8.07
2022-10-14T11:39:59.635Z,7.96
2022-10-14T11:42:41.522Z,7.69
2022-10-14T11:45:29.096Z,7.43
2022-10-14T11:48:15.679Z,7.37
2022-10-14T11:50:40.784Z,7.38
2022-10-14T11:53:13.302Z,7.34
2022-10-14T11:55:46.378Z,7.16
2022-10-14T11:58:18.455Z,7.11
2022-10-14T12:00:36.238Z,7.07
2022-10-14T12:03:20.665Z,7.00
2022-10-14T12:05:47.946Z,6.94
2022-10-14T12:08:02.852Z,6.92
2022-10-14T12:10:15.528Z,6.92
2022-10-14T12:12:22.496Z,6.91
2022-10-14T12:14:44.943Z,6.90
2022-10-14T12:17:00.432Z,6.82
2022-10-14T12:19:19.635Z,6.76
2022-10-14T12:22:12.784Z,6.80
2022-10-14T12:24:31.983Z,6.67
2022-10-14T12:26:57.584Z,6.60
2022-10-14T12:29:15.581Z,6.50
2022-10-14T12:31:38.903Z,6.42
2022-10-14T12:34:30.945Z,6.38
2022-10-14T12:36:45.921Z,6.30
2022-10-14T12:39:34.903Z,6.15
2022-10-14T12:42:10.140Z,6.17
2022-10-14T12:44:49.888Z,6.10
2022-10-14T12:46:53.637Z,6.07
2022-10-14T12:48:55.884Z,6.04
2022-10-14T12:51:17.983Z,6.08
2022-10-14T12:53:34.029Z,6.03
2022-10-14T12:55:51.039Z,6.00
2022-10-14T12:58:06.510Z,5.92
2022-10-14T13:00:36.182Z,5.98
2022-10-14T13:02:44.896Z,5.92
2022-10-14T13:04:53.579Z,5.88
2022-10-14T13:07:35.699Z,5.86
2022-10-14T13:09:58.727Z,5.78
2022-10-14T13:12:20.215Z,5.90
2022-10-14T13:14:58.439Z,6.00
2022-10-14T13:17:04.536Z,6.11
2022-10-14T13:19:38.001Z,6.20
2022-10-14T13:21:43.071Z,6.30
2022-10-14T13:23:57.579Z,6.28
2022-10-14T13:26:10.434Z,6.39
2022-10-14T13:28:35.821Z,6.33
2022-10-14T13:30:59.218Z,6.44
2022-10-14T13:33:21.127Z,6.41
2022-10-14T13:36:05.770Z,6.37
2022-10-14T13:38:24.090Z,6.33
2022-10-14T13:40:44.396Z,6.43
2022-10-14T13:43:00.713Z,6.38
2022-10-14T13:45:15.861Z,6.42
2022-10-14T13:47:30.527Z,6.27
2022-10-14T13:49:44.496Z,6.28
2022-10-14T13:52:04.591Z,6.21
2022-10-14T13:54:38.000Z,6.15
2022-10-14T14:00:33.194Z,5.76
2022-10-14T14:02:29.961Z,5.68
2022-10-14T14:04:51.789Z,5.52
2022-10-14T14:07:27.804Z,5.54
2022-10-14T14:09:39.745Z,5.52
2022-10-14T14:11:59.573Z,5.48
2022-10-14T14:14:23.051Z,5.56
2022-10-14T14:17:00.812Z,5.54
2022-10-14T14:19:29.292Z,5.59
2022-10-14T14:21:41.977Z,5.57
2022-10-14T14:23:54.756Z,5.67
2022-10-14T14:26:18.873Z,5.70
2022-10-14T14:28:36.501Z,5.70
2022-10-14T14:30:55.505Z,5.74
2022-10-14T14:33:13.745Z,5.75
2022-10-14T14:35:29.083Z,5.74
2022-10-14T14:37:56.495Z,5.84
2022-10-14T14:40:24.940Z,5.86
2022-10-14T14:42:42.777Z,5.81
2022-10-14T14:44:59.635Z,5.90
2022-10-14T14:47:13.228Z,5.85
2022-10-14T14:49:38.667Z,5.92
2022-10-14T14:51:53.324Z,5.91
2022-10-14T14:54:08.013Z,5.85
2022-10-14T14:56:32.452Z,5.91
2022-10-14T14:58:51.145Z,5.90
2022-10-14T15:01:19.535Z,5.90
2022-10-14T15:04:12.341Z,5.85
2022-10-14T15:06:27.130Z,5.79
2022-10-14T15:08:42.039Z,5.79
2022-10-14T15:10:57.773Z,5.83
2022-10-14T15:13:32.919Z,5.79
2022-10-14T15:15:35.278Z,5.78
2022-10-14T15:17:47.166Z,5.77
2022-10-14T15:19:50.092Z,5.65
2022-10-14T15:22:22.828Z,5.77
2022-10-14T15:25:00.681Z,5.75
2022-10-14T15:27:35.741Z,5.73
2022-10-14T15:30:17.709Z,5.67
2022-10-14T15:32:32.549Z,5.53
2022-10-14T15:34:46.038Z,5.49
2022-10-14T15:37:00.269Z,5.45
2022-10-14T15:39:14.914Z,5.54
2022-10-14T15:41:29.249Z,5.50
2022-10-14T15:43:42.976Z,5.49
2022-10-14T15:46:18.668Z,5.16
2022-10-14T15:48:30.768Z,5.37
2022-10-14T15:50:46.936Z,5.51
2022-10-14T15:52:59.312Z,5.52
2022-10-14T15:55:22.037Z,5.43
2022-10-14T15:57:35.287Z,5.53
2022-10-14T15:59:53.444Z,5.38
2022-10-14T16:02:33.192Z,5.49
2022-10-14T16:05:07.096Z,5.55
2022-10-14T16:07:20.410Z,5.43
2022-10-14T16:09:34.286Z,5.52
2022-10-14T16:11:49.445Z,5.53
2022-10-14T16:14:01.344Z,5.43
2022-10-14T16:16:19.276Z,5.23
2022-10-14T16:18:32.725Z,5.59
2022-10-14T16:20:46.178Z,5.47
2022-10-14T16:23:04.933Z,5.59
2022-10-14T16:25:33.774Z,5.65
2022-10-14T16:27:47.207Z,5.59
2022-10-14T16:30:01.417Z,5.57
2022-10-14T16:32:14.355Z,5.69
2022-10-14T16:35:08.649Z,5.74
2022-10-14T16:37:26.135Z,5.71
2022-10-14T16:39:40.468Z,5.69
2022-10-14T16:41:56.134Z,5.76
2022-10-14T16:44:24.753Z,5.70
2022-10-14T16:46:48.817Z,5.77
2022-10-14T16:48:51.026Z,5.76
2022-10-14T16:50:54.159Z,5.78
2022-10-14T16:53:16.594Z,5.72
2022-10-14T16:55:30.929Z,5.72
2022-10-14T16:57:44.378Z,5.77
2022-10-14T16:59:59.394Z,5.76
2022-10-14T17:02:15.316Z,5.66
2022-10-14T17:04:31.065Z,5.71
2022-10-14T17:06:42.949Z,5.77
2022-10-14T17:08:59.601Z,5.76
2022-10-14T17:11:12.983Z,5.80
2022-10-14T17:13:25.681Z,5.81
2022-10-14T17:15:45.398Z,5.83
2022-10-14T17:18:01.913Z,5.82
2022-10-14T17:20:16.218Z,5.85
2022-10-14T17:22:30.269Z,5.82
2022-10-14T17:24:44.350Z,5.80
2022-10-14T17:26:58.797Z,5.75
2022-10-14T17:29:15.698Z,5.77
2022-10-14T17:31:31.825Z,5.73
2022-10-14T17:33:45.331Z,5.80
2022-10-14T17:36:01.941Z,5.73
2022-10-14T17:38:14.679Z,5.63
2022-10-14T17:40:16.864Z,5.76
2022-10-14T17:42:19.293Z,5.78
2022-10-14T17:44:23.212Z,5.70
2022-10-14T17:46:27.393Z,5.75
2022-10-14T17:48:30.660Z,5.78
2022-10-14T17:50:38.801Z,5.78
2022-10-14T17:52:40.934Z,5.67
2022-10-14T17:54:57.566Z,5.77
2022-10-14T17:57:17.646Z,5.76
2022-10-14T17:59:33.015Z,5.76
2022-10-14T18:02:03.815Z,5.70
2022-10-14T18:06:37.588Z,5.80
2022-10-14T18:08:48.217Z,5.72
2022-10-14T18:10:50.618Z,5.75
2022-10-14T18:12:53.022Z,5.78
2022-10-14T18:14:55.294Z,5.75
2022-10-14T18:17:12.532Z,5.70
2022-10-14T18:19:27.291Z,5.68
2022-10-14T18:21:42.707Z,5.73
2022-10-14T18:23:58.430Z,5.62
2022-10-14T18:26:14.830Z,5.64
2022-10-14T18:28:34.871Z,5.67
2022-10-14T18:30:48.680Z,5.64
2022-10-14T18:33:02.964Z,5.56
2022-10-14T18:35:17.209Z,5.44
2022-10-14T18:37:38.585Z,5.51
2022-10-14T18:40:02.380Z,5.38
2022-10-14T18:42:19.914Z,5.26
2022-10-14T18:44:38.106Z,5.10
2022-10-14T18:46:53.535Z,4.99
2022-10-14T18:49:10.387Z,4.90
2022-10-14T18:51:27.511Z,4.71
2022-10-14T18:53:42.340Z,4.60
2022-10-14T18:55:44.832Z,4.30
2022-10-14T18:57:47.186Z,4.28
2022-10-14T19:00:03.022Z,4.26
2022-10-14T19:02:23.260Z,3.97
2022-10-14T19:04:36.745Z,3.67
2022-10-14T19:06:59.821Z,3.95
2022-10-14T19:09:14.742Z,3.80
2022-10-14T19:11:28.999Z,3.73
2022-10-14T19:13:43.654Z,3.61
2022-10-14T19:16:04.839Z,3.46
2022-10-14T19:18:19.329Z,3.32
2022-10-14T19:20:40.381Z,3.28
2022-10-14T19:22:56.620Z,3.17
2022-10-14T19:25:09.846Z,3.01
2022-10-14T19:27:25.830Z,3.00
2022-10-14T19:29:39.499Z,2.91
2022-10-14T19:31:54.655Z,2.78
2022-10-14T19:34:11.016Z,2.78
2022-10-14T19:36:29.758Z,2.70
2022-10-14T19:38:52.261Z,2.65
2022-10-14T19:41:08.869Z,2.58
2022-10-14T19:43:22.166Z,2.46
2022-10-14T19:45:41.016Z,2.35
2022-10-14T19:47:55.336Z,2.37
2022-10-14T19:50:10.055Z,2.36
2022-10-14T19:52:23.911Z,2.26
2022-10-14T19:54:37.975Z,2.23
2022-10-14T19:56:52.226Z,2.21
2022-10-14T19:59:06.644Z,2.20
2022-10-14T20:01:08.966Z,2.16
2022-10-14T20:03:11.380Z,2.09
2022-10-14T20:05:19.539Z,2.00
2022-10-14T20:07:22.004Z,2.02
2022-10-14T20:09:33.643Z,1.96
2022-10-14T20:11:50.009Z,1.88
2022-10-14T20:14:03.542Z,1.74
2022-10-14T20:16:17.734Z,1.82
2022-10-14T20:18:30.433Z,1.71
2022-10-14T20:20:44.451Z,1.73
2022-10-14T20:22:58.626Z,1.47
2022-10-14T20:25:15.717Z,1.62
2022-10-14T20:27:28.640Z,1.46
2022-10-14T20:29:43.104Z,1.47
2022-10-14T20:31:57.146Z,1.43
2022-10-14T20:34:11.515Z,1.32
2022-10-14T20:36:28.423Z,1.14
2022-10-14T20:38:42.093Z,1.24
2022-10-14T20:40:55.557Z,1.17
2022-10-14T20:43:08.244Z,1.10
2022-10-14T20:45:20.936Z,1.13
2022-10-14T20:47:34.947Z,1.10
2022-10-14T20:49:49.315Z,1.03
2022-10-14T20:52:01.950Z,0.95
2022-10-14T20:54:15.052Z,1.03
2022-10-14T20:56:32.459Z,0.98
2022-10-14T20:58:46.057Z,0.86
2022-10-14T21:01:07.746Z,0.91
2022-10-14T21:03:20.776Z,0.76
2022-10-14T21:05:37.719Z,0.81
2022-10-14T21:07:52.883Z,0.82
2022-10-14T21:10:07.096Z,0.67
2022-10-14T21:12:21.371Z,0.71
2022-10-14T21:14:35.024Z,0.72
2022-10-14T21:16:37.555Z,0.69
2022-10-14T21:18:39.791Z,0.65
2022-10-14T21:20:42.046Z,0.55
2022-10-14T21:22:55.648Z,0.35
2022-10-14T21:24:57.964Z,0.59
2022-10-14T21:27:00.104Z,0.60
2022-10-14T21:29:02.759Z,0.58
2022-10-14T21:31:10.097Z,0.55
2022-10-14T21:33:12.344Z,0.52
2022-10-14T21:35:14.567Z,0.46
2022-10-14T21:37:20.650Z,0.43
2022-10-14T21:39:39.005Z,0.46
2022-10-14T21:41:51.542Z,0.48
2022-10-14T21:44:05.381Z,0.35
2022-10-14T21:46:31.451Z,0.48
2022-10-14T21:48:45.604Z,0.53
2022-10-14T21:51:14.051Z,0.45
2022-10-14T21:53:27.168Z,0.42
2022-10-14T21:55:29.466Z,0.49
2022-10-14T21:57:31.639Z,0.48
2022-10-14T21:59:36.323Z,0.50
2022-10-14T22:01:39.198Z,0.56
2022-10-14T22:03:42.512Z,0.61
2022-10-14T22:05:45.081Z,0.70
2022-10-14T22:07:48.023Z,0.69
2022-10-14T22:10:00.539Z,0.75
2022-10-14T22:12:14.891Z,0.87
2022-10-14T22:14:43.109Z,0.88
2022-10-14T22:16:55.963Z,0.95
2022-10-14T22:19:11.865Z,1.02
2022-10-14T22:21:26.030Z,1.17
2022-10-14T22:23:40.455Z,1.24
2022-10-14T22:25:45.817Z,1.28
2022-10-14T22:27:47.866Z,1.37
2022-10-14T22:29:49.981Z,1.44
2022-10-14T22:31:52.304Z,1.34
2022-10-14T22:33:54.853Z,1.68
2022-10-14T22:36:10.456Z,1.81
2022-10-14T22:38:13.393Z,1.88
2022-10-14T22:40:26.388Z,2.00
2022-10-14T22:42:42.054Z,1.99
2022-10-14T22:44:54.708Z,2.16
2022-10-14T22:47:07.392Z,2.25
2022-10-14T22:49:20.040Z,2.23
2022-10-14T22:51:40.782Z,2.35
2022-10-14T22:53:54.118Z,2.38
2022-10-14T22:56:10.276Z,2.37
2022-10-14T22:58:23.330Z,2.59
2022-10-14T23:00:35.849Z,2.45
2022-10-14T23:02:49.967Z,2.67
2022-10-14T23:05:02.420Z,2.69
2022-10-14T23:07:15.273Z,2.65
2022-10-14T23:09:17.614Z,2.61
2022-10-14T23:11:22.758Z,2.80
2022-10-14T23:13:25.905Z,2.81
2022-10-14T23:15:28.717Z,2.79
2022-10-14T23:17:31.073Z,2.85
2022-10-14T23:19:33.480Z,2.88
2022-10-14T23:21:37.834Z,2.87
2022-10-14T23:23:40.623Z,2.95
2022-10-14T23:25:53.530Z,2.97
2022-10-14T23:28:05.702Z,3.04
2022-10-14T23:30:18.663Z,2.99
2022-10-14T23:32:31.171Z,3.03
2022-10-14T23:34:43.506Z,3.12
2022-10-14T23:36:56.428Z,3.15
2022-10-14T23:39:09.378Z,3.13
2022-10-14T23:41:22.921Z,3.16
2022-10-14T23:43:35.756Z,3.17
2022-10-14T23:45:48.497Z,3.02
2022-10-14T23:48:00.908Z,3.10
2022-10-14T23:50:13.831Z,3.15
2022-10-14T23:52:26.857Z,3.07
2022-10-14T23:54:29.021Z,3.17
2022-10-14T23:56:31.169Z,3.21
2022-10-14T23:58:33.857Z,3.22
